Time,TemperatureF,DewpointF,PressureIn,WindDirection,WindDirectionDegrees,WindSpeedMPH,WindSpeedGustMPH,Humidity,HourlyPrecipIn,Conditions,Clouds,dailyrainin,SoftwareType,DateUTC
2013-06-23 00:00:00,74.4,69.2,30.03,SW,222,0.0,0.0,84,0.00,,SCT033,0.00,VWS V15.00,2013-06-23 04:00:00,
2013-06-23 00:01:00,74.4,68.9,30.03,SW,222,0.0,0.0,83,0.00,,OVC250,0.00,VWS V14.01,2013-06-23 04:01:00,
2013-06-23 00:02:00,74.4,68.9,30.03,SW,222,0.0,0.0,83,0.00,,OVC200,0.00,VWS V14.01,2013-06-23 04:02:00,
2013-06-23 00:03:00,74.3,68.8,30.03,SW,222,0.0,0.0,83,0.00,,OVC200,0.00,VWS V14.01,2013-06-23 04:03:00,
2013-06-23 00:04:00,74.3,68.8,30.03,SW,222,0.0,0.0,83,0.00,,OVC200,0.00,VWS V14.01,2013-06-23 04:04:00,
2013-06-23 00:09:00,74.1,68.6,30.03,SW,222,0.0,0.0,83,0.00,,OVC200,0.00,VWS V14.01,2013-06-23 04:09:00,
2013-06-23 00:14:00,74.0,68.9,30.02,SW,222,0.0,0.0,84,0.00,,OVC200,0.00,VWS V14.01,2013-06-23 04:14:00,
2013-06-23 00:15:00,74.0,68.9,30.02,SW,222,0.0,0.0,84,0.00,,SCT033,0.00,VWS V15.00,2013-06-23 04:15:00,
2013-06-23 00:19:00,73.9,68.8,30.03,SW,222,0.0,0.0,84,0.00,,OVC200,0.00,VWS V14.01,2013-06-23 04:19:00,
2013-06-23 00:24:00,73.7,68.6,30.02,SW,222,0.0,0.0,84,0.00,,OVC200,0.00,VWS V14.01,2013-06-23 04:24:00,
2013-06-23 00:29:00,73.6,68.8,30.03,SW,222,0.0,0.0,85,0.00,,OVC200,0.00,VWS V14.01,2013-06-23 04:29:00,
2013-06-23 00:30:00,73.6,68.8,30.03,SW,222,0.0,0.0,85,0.00,,SCT033,0.00,VWS V15.00,2013-06-23 04:30:00,
2013-06-23 00:34:00,73.4,68.6,30.03,SW,222,0.0,0.0,85,0.00,,OVC200,0.00,VWS V14.01,2013-06-23 04:34:00,
2013-06-23 00:39:00,73.3,68.5,30.03,SW,222,0.0,0.0,85,0.00,,OVC200,0.00,VWS V14.01,2013-06-23 04:39:00,
2013-06-23 00:44:00,73.1,68.3,30.02,SW,222,0.0,0.0,85,0.00,,OVC200,0.00,VWS V14.01,2013-06-23 04:44:00,
2013-06-23 00:45:00,73.1,68.3,30.02,SW,222,0.0,0.0,85,0.00,,SCT033,0.00,VWS V15.00,2013-06-23 04:45:00,
2013-06-23 00:49:00,73.0,68.2,30.02,SW,222,0.0,0.0,85,0.00,,OVC200,0.00,VWS V14.01,2013-06-23 04:49:00,
2013-06-23 00:54:00,72.8,68.0,30.02,SW,222,0.0,0.0,85,0.00,,OVC200,0.00,VWS V14.01,2013-06-23 04:54:00,
2013-06-23 00:59:00,72.6,67.8,30.01,SW,222,0.0,0.0,85,0.00,,OVC200,0.00,VWS V14.01,2013-06-23 04:59:00,
2013-06-23 01:00:00,72.6,67.8,30.01,SW,222,0.0,0.0,85,0.00,,SCT033,0.00,VWS V15.00,2013-06-23 05:00:00,
2013-06-23 01:04:00,72.5,67.7,30.01,SW,222,0.0,0.0,85,0.00,,FEW033,0.00,VWS V14.01,2013-06-23 05:04:00,
2013-06-23 01:09:00,72.4,67.6,30.01,SW,222,0.0,0.0,85,0.00,,FEW033,0.00,VWS V14.01,2013-06-23 05:09:00,
2013-06-23 01:14:00,72.4,68.0,30.01,SW,222,0.0,0.0,86,0.00,,FEW033,0.00,VWS V14.01,2013-06-23 05:14:00,
2013-06-23 01:15:00,72.4,68.0,30.01,SW,222,0.0,0.0,86,0.00,,SCT033,0.00,VWS V15.00,2013-06-23 05:15:00,
2013-06-23 01:19:00,72.3,68.2,30.01,SW,222,0.0,0.0,87,0.00,,FEW033,0.00,VWS V14.01,2013-06-23 05:19:00,
2013-06-23 01:24:00,72.2,68.1,30.01,SW,222,0.0,0.0,87,0.00,,FEW033,0.00,VWS V14.01,2013-06-23 05:24:00,
2013-06-23 01:29:00,72.1,68.0,30.01,SW,222,0.0,0.0,87,0.00,,FEW033,0.00,VWS V14.01,2013-06-23 05:29:00,
2013-06-23 01:30:00,72.1,68.0,30.01,SW,222,0.0,0.0,87,0.00,,SCT033,0.00,VWS V15.00,2013-06-23 05:30:00,
2013-06-23 01:35:00,72.1,68.3,30.01,SW,222,0.0,0.0,88,0.00,,FEW033,0.00,VWS V14.01,2013-06-23 05:35:00,
2013-06-23 01:40:00,72.0,68.3,30.01,SW,222,0.0,0.0,88,0.00,,FEW033,0.00,VWS V14.01,2013-06-23 05:40:00,
2013-06-23 01:45:00,72.0,68.3,30.01,SW,222,0.0,0.0,88,0.00,,FEW033,0.00,VWS V14.01,2013-06-23 05:45:00,
2013-06-23 01:50:00,71.9,68.2,30.01,SW,222,0.0,0.0,88,0.00,,FEW033,0.00,VWS V14.01,2013-06-23 05:50:00,
2013-06-23 01:55:00,71.9,68.2,30.02,SW,222,0.0,0.0,88,0.00,,FEW033,0.00,VWS V14.01,2013-06-23 05:55:00,
2013-06-23 02:00:00,71.9,68.5,30.01,SW,222,0.0,0.0,89,0.00,,FEW033,0.00,VWS V14.01,2013-06-23 06:00:00,
2013-06-23 02:01:00,71.9,68.5,30.01,SW,222,0.0,0.0,89,0.00,,FEW033,0.00,VWS V14.01,2013-06-23 06:01:00,
2013-06-23 02:06:00,72.1,68.7,30.01,SW,222,0.0,1.0,89,0.00,,,0.00,VWS V14.01,2013-06-23 06:06:00,
2013-06-23 02:11:00,72.1,68.7,30.02,SW,222,0.0,0.0,89,0.00,,,0.00,VWS V14.01,2013-06-23 06:11:00,
2013-06-23 02:15:00,72.1,69.0,30.01,SW,222,0.0,0.0,90,0.00,,SCT033,0.00,VWS V15.00,2013-06-23 06:15:00,
2013-06-23 02:16:00,72.1,68.7,30.01,SW,222,0.0,0.0,89,0.00,,,0.00,VWS V14.01,2013-06-23 06:16:00,
2013-06-23 02:21:00,72.1,68.7,30.02,SW,222,0.0,0.0,89,0.00,,,0.00,VWS V14.01,2013-06-23 06:21:00,
2013-06-23 02:26:00,72.1,68.7,30.02,SW,222,0.0,0.0,89,0.00,,,0.00,VWS V14.01,2013-06-23 06:26:00,
2013-06-23 02:30:00,72.0,68.6,30.02,SW,222,0.0,6.0,89,0.00,,SCT033,0.00,VWS V15.00,2013-06-23 06:30:00,
2013-06-23 02:31:00,72.0,68.6,30.02,SW,222,0.0,0.0,89,0.00,,,0.00,VWS V14.01,2013-06-23 06:31:00,
2013-06-23 02:36:00,72.0,68.6,30.02,SW,222,0.0,1.0,89,0.00,,,0.00,VWS V14.01,2013-06-23 06:36:00,
2013-06-23 02:41:00,72.0,68.6,30.01,SW,222,0.0,0.0,89,0.00,,,0.00,VWS V14.01,2013-06-23 06:41:00,
2013-06-23 02:45:00,72.0,68.6,30.01,SW,222,0.0,0.0,89,0.00,,SCT033,0.00,VWS V15.00,2013-06-23 06:45:00,
2013-06-23 02:46:00,72.0,68.6,30.01,SW,222,0.0,0.0,89,0.00,,,0.00,VWS V14.01,2013-06-23 06:46:00,
2013-06-23 02:51:00,72.0,68.6,30.01,SW,222,0.0,0.0,89,0.00,,,0.00,VWS V14.01,2013-06-23 06:51:00,
2013-06-23 02:56:00,71.9,68.5,30.01,SW,222,0.0,0.0,89,0.00,,,0.00,VWS V14.01,2013-06-23 06:56:00,
2013-06-23 03:00:00,71.9,68.5,30.01,SW,222,0.0,0.0,89,0.00,,SCT033,0.00,VWS V15.00,2013-06-23 07:00:00,
2013-06-23 03:01:00,71.9,68.5,30.01,SW,222,0.0,5.0,89,0.00,,CLR,0.00,VWS V14.01,2013-06-23 07:01:00,
2013-06-23 03:06:00,71.8,68.1,30.02,SW,222,0.0,0.0,88,0.00,,CLR,0.00,VWS V14.01,2013-06-23 07:06:00,
2013-06-23 03:11:00,71.8,68.1,30.02,SW,222,0.0,0.0,88,0.00,,CLR,0.00,VWS V14.01,2013-06-23 07:11:00,
2013-06-23 03:15:00,71.8,68.1,30.02,SW,222,0.0,0.0,88,0.00,,SCT033,0.00,VWS V15.00,2013-06-23 07:15:00,
2013-06-23 03:16:00,71.8,68.1,30.02,SW,222,0.0,0.0,88,0.00,,CLR,0.00,VWS V14.01,2013-06-23 07:16:00,
2013-06-23 03:21:00,71.9,68.2,30.02,SW,222,0.0,4.0,88,0.00,,CLR,0.00,VWS V14.01,2013-06-23 07:21:00,
2013-06-23 03:27:00,71.9,68.2,30.02,SW,222,0.0,0.0,88,0.00,,CLR,0.00,VWS V14.01,2013-06-23 07:27:00,
2013-06-23 03:30:00,71.9,68.2,30.02,SW,222,0.0,0.0,88,0.00,,SCT033,0.00,VWS V15.00,2013-06-23 07:30:00,
2013-06-23 03:32:00,71.9,67.8,30.02,SW,222,0.0,1.0,87,0.00,,CLR,0.00,VWS V14.01,2013-06-23 07:32:00,
2013-06-23 03:37:00,71.9,67.8,30.02,SW,222,0.0,0.0,87,0.00,,CLR,0.00,VWS V14.01,2013-06-23 07:37:00,
2013-06-23 03:42:00,71.9,67.8,30.02,SW,222,0.0,1.0,87,0.00,,CLR,0.00,VWS V14.01,2013-06-23 07:42:00,
2013-06-23 03:45:00,71.8,67.7,30.02,SW,222,0.0,0.0,87,0.00,,SCT033,0.00,VWS V15.00,2013-06-23 07:45:00,
2013-06-23 03:47:00,71.8,67.7,30.02,SW,222,0.0,0.0,87,0.00,,CLR,0.00,VWS V14.01,2013-06-23 07:47:00,
2013-06-23 03:52:00,71.8,67.7,30.01,SW,222,0.0,0.0,87,0.00,,CLR,0.00,VWS V14.01,2013-06-23 07:52:00,
2013-06-23 03:57:00,71.7,67.6,30.01,SW,222,0.0,0.0,87,0.00,,CLR,0.00,VWS V14.01,2013-06-23 07:57:00,
2013-06-23 04:00:00,71.7,67.3,30.01,SW,222,0.0,0.0,86,0.00,,SCT033,0.00,VWS V15.00,2013-06-23 08:00:00,
2013-06-23 04:02:00,71.6,67.2,30.01,SW,222,4.0,5.0,86,0.00,,CLR,0.00,VWS V14.01,2013-06-23 08:02:00,
2013-06-23 04:07:00,71.5,67.1,30.01,SW,222,0.0,0.0,86,0.00,,CLR,0.00,VWS V14.01,2013-06-23 08:07:00,
2013-06-23 04:12:00,71.4,67.0,30.01,SW,222,0.0,0.0,86,0.00,,CLR,0.00,VWS V14.01,2013-06-23 08:12:00,
2013-06-23 04:15:00,71.4,67.0,30.01,SW,222,0.0,0.0,86,0.00,,SCT033,0.00,VWS V15.00,2013-06-23 08:15:00,
2013-06-23 04:17:00,71.3,66.9,30.01,SW,222,0.0,0.0,86,0.00,,CLR,0.00,VWS V14.01,2013-06-23 08:17:00,
2013-06-23 04:22:00,71.2,66.8,30.01,SW,222,0.0,0.0,86,0.00,,CLR,0.00,VWS V14.01,2013-06-23 08:22:00,
2013-06-23 04:27:00,71.1,66.7,30.01,SW,222,0.0,0.0,86,0.00,,CLR,0.00,VWS V14.01,2013-06-23 08:27:00,
2013-06-23 04:30:00,71.0,66.6,30.00,SW,222,0.0,1.0,86,0.00,,SCT033,0.00,VWS V15.00,2013-06-23 08:30:00,
2013-06-23 04:32:00,71.0,66.6,30.00,SW,222,0.0,0.0,86,0.00,,CLR,0.00,VWS V14.01,2013-06-23 08:32:00,
2013-06-23 04:37:00,70.9,66.5,30.01,SW,222,0.0,0.0,86,0.00,,CLR,0.00,VWS V14.01,2013-06-23 08:37:00,
2013-06-23 04:42:00,70.8,66.4,30.00,SW,222,0.0,0.0,86,0.00,,CLR,0.00,VWS V14.01,2013-06-23 08:42:00,
2013-06-23 04:45:00,70.7,66.0,30.00,SW,222,0.0,0.0,85,0.00,,SCT033,0.00,VWS V15.00,2013-06-23 08:45:00,
2013-06-23 04:47:00,70.7,66.0,30.00,SW,222,0.0,0.0,85,0.00,,CLR,0.00,VWS V14.01,2013-06-23 08:47:00,
2013-06-23 04:52:00,70.6,65.9,30.00,SW,222,0.0,0.0,85,0.00,,CLR,0.00,VWS V14.01,2013-06-23 08:52:00,
2013-06-23 04:57:00,70.5,65.8,30.01,SW,222,0.0,0.0,85,0.00,,CLR,0.00,VWS V14.01,2013-06-23 08:57:00,
2013-06-23 05:00:00,70.4,65.7,30.01,SW,222,0.0,0.0,85,0.00,,SCT033,0.00,VWS V15.00,2013-06-23 09:00:00,
2013-06-23 05:02:00,70.4,66.0,30.00,SW,222,0.0,0.0,86,0.00,,CLR,0.00,VWS V14.01,2013-06-23 09:02:00,
2013-06-23 05:07:00,70.3,65.6,30.01,SW,222,0.0,0.0,85,0.00,,CLR,0.00,VWS V14.01,2013-06-23 09:07:00,
2013-06-23 05:12:00,70.2,65.5,30.01,SW,222,0.0,0.0,85,0.00,,CLR,0.00,VWS V14.01,2013-06-23 09:12:00,
2013-06-23 05:15:00,70.1,65.4,30.01,SW,222,0.0,0.0,85,0.00,,SCT033,0.00,VWS V15.00,2013-06-23 09:15:00,
2013-06-23 05:17:00,70.0,65.3,30.00,SW,222,0.0,0.0,85,0.00,,CLR,0.00,VWS V14.01,2013-06-23 09:17:00,
2013-06-23 05:22:00,70.0,65.6,30.01,SW,222,0.0,0.0,86,0.00,,CLR,0.00,VWS V14.01,2013-06-23 09:22:00,
2013-06-23 05:28:00,69.9,65.5,30.01,SW,222,0.0,0.0,86,0.00,,CLR,0.00,VWS V14.01,2013-06-23 09:28:00,
2013-06-23 05:30:00,69.9,65.5,30.01,SW,222,0.0,0.0,86,0.00,,SCT033,0.00,VWS V15.00,2013-06-23 09:30:00,
2013-06-23 05:33:00,69.8,65.4,30.01,SW,222,0.0,0.0,86,0.00,,CLR,0.00,VWS V14.01,2013-06-23 09:33:00,
2013-06-23 05:38:00,69.7,65.3,30.01,SW,222,0.0,0.0,86,0.00,,CLR,0.00,VWS V14.01,2013-06-23 09:38:00,
2013-06-23 05:43:00,69.6,65.2,30.01,SW,222,0.0,0.0,86,0.00,,CLR,0.00,VWS V14.01,2013-06-23 09:43:00,
2013-06-23 05:45:00,69.7,65.7,30.02,SW,222,0.0,0.0,87,0.00,,SCT033,0.00,VWS V15.00,2013-06-23 09:45:00,
2013-06-23 05:48:00,69.6,65.6,30.01,SW,222,0.0,0.0,87,0.00,,CLR,0.00,VWS V14.01,2013-06-23 09:48:00,
2013-06-23 05:53:00,69.5,65.5,30.01,SW,222,0.0,0.0,87,0.00,,CLR,0.00,VWS V14.01,2013-06-23 09:53:00,
2013-06-23 05:58:00,69.4,65.4,30.00,SW,222,0.0,0.0,87,0.00,,CLR,0.00,VWS V14.01,2013-06-23 09:58:00,
2013-06-23 06:00:00,69.4,65.4,30.00,SW,222,0.0,0.0,87,0.00,,SCT033,0.00,VWS V15.00,2013-06-23 10:00:00,
2013-06-23 06:03:00,69.4,65.4,30.00,SW,222,0.0,0.0,87,0.00,,CLR,0.00,VWS V14.01,2013-06-23 10:03:00,
2013-06-23 06:08:00,69.3,65.3,30.00,SW,222,0.0,0.0,87,0.00,,CLR,0.00,VWS V14.01,2013-06-23 10:08:00,
2013-06-23 06:13:00,69.3,65.3,30.00,SW,222,0.0,0.0,87,0.00,,CLR,0.00,VWS V14.01,2013-06-23 10:13:00,
2013-06-23 06:15:00,69.3,65.3,30.00,SW,222,0.0,0.0,87,0.00,,SCT033,0.00,VWS V15.00,2013-06-23 10:15:00,
2013-06-23 06:18:00,69.2,65.5,30.00,SW,222,0.0,0.0,88,0.00,,CLR,0.00,VWS V14.01,2013-06-23 10:18:00,
2013-06-23 06:23:00,69.2,65.5,30.01,SW,222,0.0,0.0,88,0.00,,BKN250,0.00,VWS V14.01,2013-06-23 10:23:00,
2013-06-23 06:28:00,69.2,65.5,30.01,SW,222,0.0,0.0,88,0.00,,BKN250,0.00,VWS V14.01,2013-06-23 10:28:00,
2013-06-23 06:30:00,69.2,65.5,30.01,SW,222,0.0,1.0,88,0.00,,SCT033,0.00,VWS V15.00,2013-06-23 10:30:00,
2013-06-23 06:33:00,69.2,65.5,30.01,SW,222,0.0,6.0,88,0.00,,BKN250,0.00,VWS V14.01,2013-06-23 10:33:00,
2013-06-23 06:38:00,69.2,65.5,30.01,SW,222,0.0,5.0,88,0.00,,BKN250,0.00,VWS V14.01,2013-06-23 10:38:00,
2013-06-23 06:43:00,69.2,65.5,30.01,SW,222,0.0,0.0,88,0.00,,BKN250,0.00,VWS V14.01,2013-06-23 10:43:00,
2013-06-23 06:45:00,69.3,65.6,30.01,SW,222,0.0,4.0,88,0.00,,SCT033,0.00,VWS V15.00,2013-06-23 10:45:00,
2013-06-23 06:48:00,69.3,65.6,30.02,SW,222,0.0,0.0,88,0.00,,BKN250,0.00,VWS V14.01,2013-06-23 10:48:00,
2013-06-23 06:53:00,69.3,65.6,30.02,SW,222,0.0,0.0,88,0.00,,BKN250,0.00,VWS V14.01,2013-06-23 10:53:00,
2013-06-23 06:58:00,69.4,65.7,30.02,SW,222,5.0,5.0,88,0.00,,BKN250,0.00,VWS V14.01,2013-06-23 10:58:00,
2013-06-23 07:00:00,69.4,65.7,30.02,SW,222,0.0,7.0,88,0.00,,SCT033,0.00,VWS V15.00,2013-06-23 11:00:00,
2013-06-23 07:03:00,69.4,65.7,30.02,SW,222,0.0,7.0,88,0.00,,BKN250,0.00,VWS V14.01,2013-06-23 11:03:00,
2013-06-23 07:08:00,69.6,65.9,30.02,SSW,212,0.0,6.0,88,0.00,,BKN250,0.00,VWS V14.01,2013-06-23 11:08:00,
2013-06-23 07:13:00,69.7,66.0,30.01,SSW,203,0.0,0.0,88,0.00,,BKN250,0.00,VWS V14.01,2013-06-23 11:13:00,
2013-06-23 07:15:00,69.8,66.1,30.01,SSW,203,0.0,0.0,88,0.00,,SCT033,0.00,VWS V15.00,2013-06-23 11:15:00,
2013-06-23 07:18:00,69.9,66.2,30.02,SSW,203,0.0,0.0,88,0.00,,BKN250,0.00,VWS V14.01,2013-06-23 11:18:00,
2013-06-23 07:23:00,70.1,66.4,30.01,South,191,0.0,8.0,88,0.00,,BKN250,0.00,VWS V14.01,2013-06-23 11:23:00,
2013-06-23 07:29:00,70.3,66.2,30.01,South,191,0.0,4.0,87,0.00,,BKN250,0.00,VWS V14.01,2013-06-23 11:29:00,
2013-06-23 07:30:00,70.3,66.2,30.01,South,191,0.0,0.0,87,0.00,,SCT033,0.00,VWS V15.00,2013-06-23 11:30:00,
2013-06-23 07:34:00,70.5,66.4,30.01,South,191,0.0,0.0,87,0.00,,BKN250,0.00,VWS V14.01,2013-06-23 11:34:00,
2013-06-23 07:39:00,70.8,66.7,30.01,South,191,0.0,0.0,87,0.00,,BKN250,0.00,VWS V14.01,2013-06-23 11:39:00,
2013-06-23 07:44:00,71.0,66.6,30.01,SSW,192,7.0,7.0,86,0.00,,BKN250,0.00,VWS V14.01,2013-06-23 11:44:00,
2013-06-23 07:45:00,71.1,66.7,30.01,SSW,193,3.0,6.0,86,0.00,,SCT033,0.00,VWS V15.00,2013-06-23 11:45:00,
2013-06-23 07:49:00,71.3,66.9,30.01,SSW,193,0.0,0.0,86,0.00,,BKN250,0.00,VWS V14.01,2013-06-23 11:49:00,
2013-06-23 07:54:00,71.6,66.9,30.01,South,175,8.0,8.0,85,0.00,,BKN250,0.00,VWS V14.01,2013-06-23 11:54:00,
2013-06-23 07:59:00,72.0,67.2,30.00,South,171,0.0,4.0,85,0.00,,BKN250,0.00,VWS V14.01,2013-06-23 11:59:00,
2013-06-23 08:00:00,72.1,67.0,30.00,SSE,160,7.0,8.0,84,0.00,,SCT033,0.00,VWS V15.00,2013-06-23 12:00:00,
2013-06-23 08:04:00,72.4,67.3,29.99,SSE,147,0.0,6.0,84,0.00,,BKN250,0.00,VWS V14.01,2013-06-23 12:04:00,
2013-06-23 08:09:00,72.7,67.6,29.99,SE,144,1.0,7.0,84,0.00,,BKN250,0.00,VWS V14.01,2013-06-23 12:09:00,
2013-06-23 08:14:00,72.9,67.1,29.98,SSE,159,0.0,6.0,82,0.00,,BKN250,0.00,VWS V14.01,2013-06-23 12:14:00,
2013-06-23 08:15:00,72.9,67.1,29.98,SSE,159,0.0,0.0,82,0.00,,SCT033,0.00,VWS V15.00,2013-06-23 12:15:00,
2013-06-23 08:19:00,73.0,67.2,29.99,South,182,5.0,8.0,82,0.00,,BKN250,0.00,VWS V14.01,2013-06-23 12:19:00,
2013-06-23 08:24:00,73.3,67.5,29.98,SSE,168,0.0,10.0,82,0.00,,BKN250,0.00,VWS V14.01,2013-06-23 12:24:00,
2013-06-23 08:29:00,73.7,67.5,29.99,South,175,0.0,0.0,81,0.00,,BKN250,0.00,VWS V14.01,2013-06-23 12:29:00,
2013-06-23 08:30:00,73.8,67.6,29.99,South,184,0.0,7.0,81,0.00,,SCT033,0.00,VWS V15.00,2013-06-23 12:30:00,
2013-06-23 08:34:00,74.0,67.4,29.99,South,181,6.0,7.0,80,0.00,,BKN250,0.00,VWS V14.01,2013-06-23 12:34:00,
2013-06-23 08:39:00,74.5,67.9,29.98,South,175,0.0,10.0,80,0.00,,BKN250,0.00,VWS V14.01,2013-06-23 12:39:00,
2013-06-23 08:44:00,75.0,68.1,29.98,South,169,0.0,7.0,79,0.00,,BKN250,0.00,VWS V14.01,2013-06-23 12:44:00,
2013-06-23 08:45:00,75.0,68.1,29.98,South,171,3.0,9.0,79,0.00,,SCT033,0.00,VWS V15.00,2013-06-23 12:45:00,
2013-06-23 08:49:00,75.4,68.1,29.98,SSE,164,1.0,9.0,78,0.00,,BKN250,0.00,VWS V14.01,2013-06-23 12:49:00,
2013-06-23 08:55:00,75.8,68.1,29.98,SE,130,0.0,8.0,77,0.00,,BKN250,0.00,VWS V14.01,2013-06-23 12:55:00,
2013-06-23 09:00:00,76.2,68.5,29.98,South,175,0.0,0.0,77,0.00,,BKN250,0.00,VWS V14.01,2013-06-23 13:00:00,
2013-06-23 09:05:00,76.6,68.5,29.98,South,176,2.0,3.0,76,0.00,,BKN250,0.00,VWS V14.01,2013-06-23 13:05:00,
2013-06-23 09:10:00,77.0,68.5,29.98,SSW,193,7.0,8.0,75,0.00,,BKN250,0.00,VWS V14.01,2013-06-23 13:10:00,
2013-06-23 09:15:00,77.5,69.0,29.98,South,183,0.0,0.0,75,0.00,,BKN250,0.00,VWS V14.01,2013-06-23 13:15:00,
2013-06-23 09:20:00,77.8,68.9,29.98,SSE,163,0.0,8.0,74,0.00,,BKN250,0.00,VWS V14.01,2013-06-23 13:20:00,
2013-06-23 09:25:00,78.3,69.3,29.98,SE,143,0.0,4.0,74,0.00,,BKN250,0.00,VWS V14.01,2013-06-23 13:25:00,
2013-06-23 09:30:00,78.7,68.9,29.98,South,170,0.0,0.0,72,0.00,,BKN250,0.00,VWS V14.01,2013-06-23 13:30:00,
2013-06-23 09:35:00,79.2,69.4,29.97,SSE,147,5.0,10.0,72,0.00,,BKN250,0.00,VWS V14.01,2013-06-23 13:35:00,
2013-06-23 09:40:00,79.7,69.5,29.98,SSE,168,0.0,5.0,71,0.00,,BKN250,0.00,VWS V14.01,2013-06-23 13:40:00,
2013-06-23 09:45:00,80.1,69.9,29.98,South,174,0.0,6.0,71,0.00,,BKN250,0.00,VWS V14.01,2013-06-23 13:45:00,
2013-06-23 09:50:00,80.3,69.6,29.98,SSE,165,0.0,7.0,70,0.00,,BKN250,0.00,VWS V14.01,2013-06-23 13:50:00,
2013-06-23 09:55:00,80.5,69.4,29.98,SSE,165,0.0,10.0,69,0.00,,BKN250,0.00,VWS V14.01,2013-06-23 13:55:00,
2013-06-23 10:00:00,80.5,69.0,29.98,SSW,195,0.0,5.0,68,0.00,,SCT033,0.00,VWS V15.00,2013-06-23 14:00:00,
2013-06-23 10:01:00,80.5,69.0,29.98,SSW,195,0.0,0.0,68,0.00,,BKN250,0.00,VWS V14.01,2013-06-23 14:01:00,
2013-06-23 10:06:00,80.5,69.0,29.99,SSW,205,0.0,1.0,68,0.00,,BKN250,0.00,VWS V14.01,2013-06-23 14:06:00,
2013-06-23 10:11:00,80.4,68.4,29.99,SW,226,0.0,0.0,67,0.00,,BKN250,0.00,VWS V14.01,2013-06-23 14:11:00,
2013-06-23 10:15:00,80.5,69.4,29.99,SW,230,0.0,0.0,69,0.00,,SCT033,0.00,VWS V15.00,2013-06-23 14:15:00,
2013-06-23 10:16:00,80.5,69.4,29.99,SW,230,0.0,0.0,69,0.00,,BKN250,0.00,VWS V14.01,2013-06-23 14:16:00,
2013-06-23 10:21:00,80.8,68.8,29.99,SW,227,0.0,0.0,67,0.00,,BKN250,0.00,VWS V14.01,2013-06-23 14:21:00,
2013-06-23 10:26:00,81.3,69.7,29.99,South,176,8.0,9.0,68,0.00,,BKN250,0.00,VWS V14.01,2013-06-23 14:26:00,
2013-06-23 10:30:00,81.9,69.4,29.99,South,180,4.0,12.0,66,0.00,,SCT033,0.00,VWS V15.00,2013-06-23 14:30:00,
2013-06-23 10:31:00,82.0,69.1,29.99,South,180,0.0,8.0,65,0.00,,BKN250,0.00,VWS V14.01,2013-06-23 14:31:00,
2013-06-23 10:36:00,82.6,68.3,29.99,SSW,205,12.0,19.0,62,0.00,,BKN250,0.00,VWS V14.01,2013-06-23 14:36:00,
2013-06-23 10:41:00,83.0,68.7,29.99,South,182,4.0,8.0,62,0.00,,BKN250,0.00,VWS V14.01,2013-06-23 14:41:00,
2013-06-23 10:45:00,83.1,67.8,29.99,SSW,213,17.0,17.0,60,0.00,,SCT033,0.00,VWS V15.00,2013-06-23 14:45:00,
2013-06-23 10:47:00,83.0,67.7,29.99,South,170,1.0,7.0,60,0.00,,BKN250,0.00,VWS V14.01,2013-06-23 14:47:00,
2013-06-23 10:52:00,83.2,68.8,29.98,South,190,8.0,10.0,62,0.00,,BKN250,0.00,VWS V14.01,2013-06-23 14:52:00,
2013-06-23 10:57:00,83.2,67.4,29.99,South,176,4.0,9.0,59,0.00,,BKN250,0.00,VWS V14.01,2013-06-23 14:57:00,
2013-06-23 11:00:00,83.3,67.5,29.99,SSW,207,5.0,11.0,59,0.00,,SCT033,0.00,VWS V15.00,2013-06-23 15:00:00,
2013-06-23 11:03:00,83.4,67.6,30.00,SW,220,0.0,8.0,59,0.00,,BKN250,0.00,VWS V14.01,2013-06-23 15:03:00,
2013-06-23 11:09:00,83.7,68.8,30.00,South,176,6.0,8.0,61,0.00,,BKN250,0.00,VWS V14.01,2013-06-23 15:09:00,
2013-06-23 11:14:00,84.0,68.1,30.00,SSW,207,7.0,9.0,59,0.00,,BKN250,0.00,VWS V14.01,2013-06-23 15:14:00,
2013-06-23 11:15:00,84.1,67.7,30.00,South,181,7.0,7.0,58,0.00,,SCT033,0.00,VWS V15.00,2013-06-23 15:15:00,
2013-06-23 11:19:00,84.4,68.0,30.00,SSE,162,0.0,11.0,58,0.00,,BKN250,0.00,VWS V14.01,2013-06-23 15:19:00,
2013-06-23 11:24:00,84.8,68.9,30.00,South,190,2.0,10.0,59,0.00,,BKN250,0.00,VWS V14.01,2013-06-23 15:24:00,
2013-06-23 11:29:00,85.2,69.3,30.00,SSW,213,6.0,10.0,59,0.00,,BKN250,0.00,VWS V14.01,2013-06-23 15:29:00,
2013-06-23 11:30:00,85.3,68.4,30.00,South,182,6.0,6.0,57,0.00,,SCT033,0.00,VWS V15.00,2013-06-23 15:30:00,
2013-06-23 11:34:00,85.6,69.1,30.00,SSW,207,6.0,9.0,58,0.00,,BKN250,0.00,VWS V14.01,2013-06-23 15:34:00,
2013-06-23 11:39:00,85.9,69.4,30.01,South,191,1.0,10.0,58,0.00,,BKN250,0.00,VWS V14.01,2013-06-23 15:39:00,
2013-06-23 11:44:00,86.3,67.7,30.01,SSW,199,8.0,10.0,54,0.00,,BKN250,0.00,VWS V14.01,2013-06-23 15:44:00,
2013-06-23 11:45:00,86.2,67.6,30.01,South,172,4.0,10.0,54,0.00,,SCT033,0.00,VWS V15.00,2013-06-23 15:45:00,
2013-06-23 11:50:00,86.4,69.9,30.01,South,191,6.0,7.0,58,0.00,,BKN250,0.00,VWS V14.01,2013-06-23 15:50:00,
2013-06-23 11:55:00,86.7,69.7,30.01,SSE,157,5.0,9.0,57,0.00,,BKN250,0.00,VWS V14.01,2013-06-23 15:55:00,
2013-06-23 12:00:00,86.9,69.3,30.01,South,183,12.0,15.0,56,0.00,,BKN250,0.00,VWS V14.01,2013-06-23 16:00:00,
2013-06-23 12:05:00,86.9,68.8,30.01,SSW,207,10.0,15.0,55,0.00,,BKN250,0.00,VWS V14.01,2013-06-23 16:05:00,
2013-06-23 12:10:00,86.8,67.6,30.01,South,183,7.0,15.0,53,0.00,,BKN250,0.00,VWS V14.01,2013-06-23 16:10:00,
2013-06-23 12:15:00,86.7,67.5,30.01,SW,232,0.0,11.0,53,0.00,,BKN250,0.00,VWS V14.01,2013-06-23 16:15:00,
2013-06-23 12:20:00,86.8,69.2,30.01,South,170,0.0,0.0,56,0.00,,BKN250,0.00,VWS V14.01,2013-06-23 16:20:00,
2013-06-23 12:26:00,87.0,69.4,30.00,SSE,157,7.0,8.0,56,0.00,,BKN250,0.00,VWS V14.01,2013-06-23 16:26:00,
2013-06-23 12:30:00,87.3,68.1,30.00,SSW,193,1.0,10.0,53,0.00,,SCT033,0.00,VWS V15.00,2013-06-23 16:30:00,
2013-06-23 12:31:00,87.3,68.1,30.00,SSE,168,8.0,14.0,53,0.00,,BKN250,0.00,VWS V14.01,2013-06-23 16:31:00,
2013-06-23 12:36:00,87.3,68.1,30.01,South,184,9.0,9.0,53,0.00,,BKN250,0.00,VWS V14.01,2013-06-23 16:36:00,
2013-06-23 12:41:00,87.5,69.9,30.00,SSW,196,14.0,14.0,56,0.00,,BKN250,0.00,VWS V14.01,2013-06-23 16:41:00,
2013-06-23 12:45:00,87.7,68.5,30.00,SSW,203,0.0,6.0,53,0.00,,SCT033,0.00,VWS V15.00,2013-06-23 16:45:00,
2013-06-23 12:46:00,87.7,69.0,30.00,SSE,165,7.0,9.0,54,0.00,,BKN250,0.00,VWS V14.01,2013-06-23 16:46:00,
2013-06-23 12:51:00,87.9,68.1,30.00,SSW,201,0.0,7.0,52,0.00,,BKN250,0.00,VWS V14.01,2013-06-23 16:51:00,
2013-06-23 12:56:00,88.0,68.7,30.00,SSW,193,2.0,5.0,53,0.00,,BKN250,0.00,VWS V14.01,2013-06-23 16:56:00,
2013-06-23 12:57:00,88.0,68.7,30.00,South,189,4.0,6.0,53,0.00,,BKN250,0.00,VWS V14.01,2013-06-23 16:57:00,
2013-06-23 12:59:00,88.1,68.3,30.00,SSW,203,2.0,14.0,52,0.00,,BKN250,0.00,VWS V14.01,2013-06-23 16:59:00,
2013-06-23 13:00:00,88.1,67.7,30.00,West,261,0.0,10.0,51,0.00,,SCT033,0.00,VWS V15.00,2013-06-23 17:00:00,
2013-06-23 13:04:00,88.2,68.4,30.00,SSW,196,4.0,7.0,52,0.00,,BKN250,0.00,VWS V14.01,2013-06-23 17:04:00,
2013-06-23 13:06:00,88.3,68.5,30.00,SSW,210,6.0,15.0,52,0.00,,BKN250,0.00,VWS V14.01,2013-06-23 17:06:00,
2013-06-23 13:12:00,88.5,70.3,30.00,SSW,198,4.0,10.0,55,0.00,,SCT250,0.00,VWS V14.01,2013-06-23 17:12:00,
2013-06-23 13:15:00,88.5,69.2,30.00,South,183,9.0,10.0,53,0.00,,SCT033,0.00,VWS V15.00,2013-06-23 17:15:00,
2013-06-23 13:17:00,88.5,68.1,30.00,SSE,153,8.0,15.0,51,0.00,,SCT250,0.00,VWS V14.01,2013-06-23 17:17:00,
2013-06-23 13:22:00,88.5,68.6,30.00,SSW,203,6.0,9.0,52,0.00,,SCT250,0.00,VWS V14.01,2013-06-23 17:22:00,
2013-06-23 13:27:00,88.5,69.2,30.00,South,187,0.0,9.0,53,0.00,,SCT250,0.00,VWS V14.01,2013-06-23 17:27:00,
2013-06-23 13:30:00,88.5,69.2,30.00,SW,221,6.0,8.0,53,0.00,,SCT033,0.00,VWS V15.00,2013-06-23 17:30:00,
2013-06-23 13:32:00,88.5,69.8,30.00,SW,215,0.0,8.0,54,0.00,,SCT250,0.00,VWS V14.01,2013-06-23 17:32:00,
2013-06-23 13:37:00,88.5,70.3,30.00,SSW,211,7.0,9.0,55,0.00,,SCT250,0.00,VWS V14.01,2013-06-23 17:37:00,
2013-06-23 13:42:00,88.6,70.4,30.00,SW,231,2.0,7.0,55,0.00,,SCT250,0.00,VWS V14.01,2013-06-23 17:42:00,
2013-06-23 13:45:00,88.5,69.8,30.00,SSW,213,0.0,9.0,54,0.00,,SCT033,0.00,VWS V15.00,2013-06-23 17:45:00,
2013-06-23 13:47:00,88.6,69.8,30.00,SSW,198,5.0,8.0,54,0.00,,SCT250,0.00,VWS V14.01,2013-06-23 17:47:00,
2013-06-23 13:52:00,88.8,70.0,30.00,SW,218,6.0,9.0,54,0.00,,SCT250,0.00,VWS V14.01,2013-06-23 17:52:00,
2013-06-23 13:57:00,88.9,70.1,30.00,WSW,256,2.0,9.0,54,0.00,,SCT250,0.00,VWS V14.01,2013-06-23 17:57:00,
2013-06-23 14:00:00,88.9,69.6,30.00,WSW,245,7.0,10.0,53,0.00,,SCT033,0.00,VWS V15.00,2013-06-23 18:00:00,
2013-06-23 14:02:00,88.8,69.5,30.00,SW,214,6.0,10.0,53,0.00,,SCT250,0.00,VWS V14.01,2013-06-23 18:02:00,
2013-06-23 14:07:00,88.6,69.8,30.00,SW,217,1.0,3.0,54,0.00,,SCT250,0.00,VWS V14.01,2013-06-23 18:07:00,
2013-06-23 14:12:00,88.6,69.8,30.00,WSW,251,0.0,10.0,54,0.00,,SCT250,0.00,VWS V14.01,2013-06-23 18:12:00,
2013-06-23 14:15:00,88.5,69.2,30.00,SW,230,0.0,8.0,53,0.00,,SCT033,0.00,VWS V15.00,2013-06-23 18:15:00,
2013-06-23 14:17:00,88.5,69.2,30.00,SW,215,0.0,10.0,53,0.00,,SCT250,0.00,VWS V14.01,2013-06-23 18:17:00,
2013-06-23 14:23:00,88.5,69.2,29.99,SW,233,10.0,16.0,53,0.00,,SCT250,0.00,VWS V14.01,2013-06-23 18:23:00,
2013-06-23 14:28:00,88.3,67.9,30.00,SW,223,6.0,7.0,51,0.00,,SCT250,0.00,VWS V14.01,2013-06-23 18:28:00,
2013-06-23 14:30:00,88.2,68.9,29.99,WSW,239,0.0,5.0,53,0.00,,SCT033,0.00,VWS V15.00,2013-06-23 18:30:00,
2013-06-23 14:33:00,88.1,68.8,29.99,WSW,254,7.0,10.0,53,0.00,,SCT250,0.00,VWS V14.01,2013-06-23 18:33:00,
2013-06-23 14:38:00,88.1,69.4,29.99,SSW,207,8.0,10.0,54,0.00,,SCT250,0.00,VWS V14.01,2013-06-23 18:38:00,
2013-06-23 14:43:00,88.1,70.4,29.99,SW,234,3.0,5.0,56,0.00,,SCT250,0.00,VWS V14.01,2013-06-23 18:43:00,
2013-06-23 14:45:00,88.2,69.5,29.99,SW,218,0.0,0.0,54,0.00,,SCT033,0.00,VWS V15.00,2013-06-23 18:45:00,
2013-06-23 14:48:00,88.2,69.5,29.99,SW,216,0.0,1.0,54,0.00,,SCT250,0.00,VWS V14.01,2013-06-23 18:48:00,
2013-06-23 14:53:00,88.5,70.3,29.99,West,276,2.0,9.0,55,0.00,,SCT250,0.00,VWS V14.01,2013-06-23 18:53:00,
2013-06-23 14:58:00,88.6,69.3,29.99,SW,226,0.0,18.0,53,0.00,,SCT250,0.00,VWS V14.01,2013-06-23 18:58:00,
2013-06-23 15:00:00,88.5,69.8,29.99,SSW,195,6.0,6.0,54,0.00,,SCT033,0.00,VWS V15.00,2013-06-23 19:00:00,
2013-06-23 15:03:00,88.5,69.2,29.99,SW,229,1.0,7.0,53,0.00,,SCT250,0.00,VWS V14.01,2013-06-23 19:03:00,
2013-06-23 15:08:00,88.4,70.7,29.99,WSW,245,4.0,17.0,56,0.00,,SCT250,0.00,VWS V14.01,2013-06-23 19:08:00,
2013-06-23 15:13:00,88.5,70.3,29.99,SW,221,8.0,14.0,55,0.00,,SCT250,0.00,VWS V14.01,2013-06-23 19:13:00,
2013-06-23 15:15:00,88.5,69.8,29.99,SSW,211,4.0,10.0,54,0.00,,SCT033,0.00,VWS V15.00,2013-06-23 19:15:00,
2013-06-23 15:18:00,88.6,69.8,29.99,SSW,195,3.0,8.0,54,0.00,,SCT250,0.00,VWS V14.01,2013-06-23 19:18:00,
2013-06-23 15:23:00,88.9,70.7,29.99,SW,228,4.0,6.0,55,0.00,,SCT250,0.00,VWS V14.01,2013-06-23 19:23:00,
2013-06-23 15:28:00,89.0,70.8,29.99,SSW,203,3.0,12.0,55,0.00,,SCT250,0.00,VWS V14.01,2013-06-23 19:28:00,
2013-06-23 15:30:00,89.1,70.3,29.98,SSW,202,9.0,9.0,54,0.00,,SCT033,0.00,VWS V15.00,2013-06-23 19:30:00,
2013-06-23 15:33:00,89.3,71.0,29.98,SSW,201,3.0,12.0,55,0.00,,SCT250,0.00,VWS V14.01,2013-06-23 19:33:00,
2013-06-23 15:38:00,89.5,70.7,29.98,SW,218,1.0,8.0,54,0.00,,SCT250,0.00,VWS V14.01,2013-06-23 19:38:00,
2013-06-23 15:43:00,89.5,71.2,29.97,South,182,5.0,12.0,55,0.00,,SCT250,0.00,VWS V14.01,2013-06-23 19:43:00,
2013-06-23 15:45:00,89.5,70.1,29.97,WSW,240,10.0,15.0,53,0.00,,SCT033,0.00,VWS V15.00,2013-06-23 19:45:00,
2013-06-23 15:48:00,89.4,70.0,29.97,South,176,8.0,8.0,53,0.00,,SCT250,0.00,VWS V14.01,2013-06-23 19:48:00,
2013-06-23 15:53:00,89.5,70.7,29.98,SSW,200,1.0,3.0,54,0.00,,SCT250,0.00,VWS V14.01,2013-06-23 19:53:00,
2013-06-23 15:59:00,89.5,69.6,29.98,SSW,202,9.0,9.0,52,0.00,,SCT250,0.00,VWS V14.01,2013-06-23 19:59:00,
2013-06-23 16:00:00,89.5,68.4,29.98,SW,222,2.0,9.0,50,0.00,,SCT033,0.00,VWS V15.00,2013-06-23 20:00:00,
2013-06-23 16:04:00,89.5,69.6,29.98,SW,222,7.0,15.0,52,0.00,,SCT250,0.00,VWS V14.01,2013-06-23 20:04:00,
2013-06-23 16:09:00,89.7,69.2,29.98,SSW,209,0.0,4.0,51,0.00,,SCT250,0.00,VWS V14.01,2013-06-23 20:09:00,
2013-06-23 16:14:00,89.7,70.9,29.98,SW,215,0.0,6.0,54,0.00,,SCT250,0.00,VWS V14.01,2013-06-23 20:14:00,
2013-06-23 16:15:00,89.7,70.3,29.98,SW,224,3.0,9.0,53,0.00,,SCT033,0.00,VWS V15.00,2013-06-23 20:15:00,
2013-06-23 16:19:00,89.7,70.3,29.98,SSW,199,4.0,6.0,53,0.00,,SCT250,0.00,VWS V14.01,2013-06-23 20:19:00,
2013-06-23 16:24:00,89.7,70.9,29.97,SW,232,5.0,7.0,54,0.00,,SCT250,0.00,VWS V14.01,2013-06-23 20:24:00,
2013-06-23 16:29:00,89.7,70.3,29.97,SSW,212,0.0,5.0,53,0.00,,SCT250,0.00,VWS V14.01,2013-06-23 20:29:00,
2013-06-23 16:30:00,89.8,71.5,29.97,SSW,201,4.0,8.0,55,0.00,,SCT033,0.00,VWS V15.00,2013-06-23 20:30:00,
2013-06-23 16:34:00,89.9,71.0,29.97,SW,229,12.0,13.0,54,0.00,,SCT250,0.00,VWS V14.01,2013-06-23 20:34:00,
2013-06-23 16:39:00,89.8,70.9,29.97,South,178,3.0,5.0,54,0.00,,SCT250,0.00,VWS V14.01,2013-06-23 20:39:00,
2013-06-23 16:44:00,89.9,70.5,29.97,SW,214,0.0,9.0,53,0.00,,SCT250,0.00,VWS V14.01,2013-06-23 20:44:00,
2013-06-23 16:45:00,89.9,70.5,29.97,SW,220,9.0,13.0,53,0.00,,SCT033,0.00,VWS V15.00,2013-06-23 20:45:00,
2013-06-23 16:49:00,89.8,69.3,29.97,SSW,212,3.0,10.0,51,0.00,,SCT250,0.00,VWS V14.01,2013-06-23 20:49:00,
2013-06-23 16:54:00,89.7,70.3,29.96,SSW,197,7.0,11.0,53,0.00,,SCT250,0.00,VWS V14.01,2013-06-23 20:54:00,
2013-06-23 16:59:00,89.7,70.9,29.96,SSE,161,2.0,12.0,54,0.00,,SCT250,0.00,VWS V14.01,2013-06-23 20:59:00,
2013-06-23 17:00:00,89.7,70.9,29.96,South,186,3.0,7.0,54,0.00,,SCT033,0.00,VWS V15.00,2013-06-23 21:00:00,
2013-06-23 17:04:00,89.8,70.9,29.96,SW,230,4.0,7.0,54,0.00,,SCT250,0.00,VWS V14.01,2013-06-23 21:04:00,
2013-06-23 17:09:00,89.8,69.8,29.96,WSW,249,6.0,8.0,52,0.00,,SCT250,0.00,VWS V14.01,2013-06-23 21:09:00,
2013-06-23 17:14:00,89.5,69.6,29.96,SW,216,2.0,10.0,52,0.00,,SCT250,0.00,VWS V14.01,2013-06-23 21:14:00,
2013-06-23 17:15:00,89.5,70.1,29.96,SW,232,4.0,9.0,53,0.00,,SCT033,0.00,VWS V15.00,2013-06-23 21:15:00,
2013-06-23 17:19:00,89.2,68.7,29.96,SW,215,0.0,4.0,51,0.00,,SCT250,0.00,VWS V14.01,2013-06-23 21:19:00,
2013-06-23 17:24:00,89.1,69.8,29.96,SW,223,7.0,7.0,53,0.00,,SCT250,0.00,VWS V14.01,2013-06-23 21:24:00,
2013-06-23 17:29:00,89.1,69.2,29.95,South,184,8.0,9.0,52,0.00,,SCT250,0.00,VWS V14.01,2013-06-23 21:29:00,
2013-06-23 17:30:00,89.1,69.2,29.95,SSW,195,1.0,10.0,52,0.00,,SCT033,0.00,VWS V15.00,2013-06-23 21:30:00,
2013-06-23 17:34:00,89.1,69.2,29.95,West,260,5.0,5.0,52,0.00,,SCT250,0.00,VWS V14.01,2013-06-23 21:34:00,
2013-06-23 17:39:00,88.9,68.4,29.96,SW,226,5.0,12.0,51,0.00,,SCT250,0.00,VWS V14.01,2013-06-23 21:39:00,
2013-06-23 17:44:00,88.5,68.1,29.95,SW,236,0.0,5.0,51,0.00,,SCT250,0.00,VWS V14.01,2013-06-23 21:44:00,
2013-06-23 17:45:00,88.5,68.6,29.95,SW,232,0.0,4.0,52,0.00,,SCT033,0.00,VWS V15.00,2013-06-23 21:45:00,
2013-06-23 17:50:00,88.2,68.9,29.96,SW,230,6.0,8.0,53,0.00,,SCT250,0.00,VWS V14.01,2013-06-23 21:50:00,
2013-06-23 17:55:00,87.9,68.7,29.96,SW,220,4.0,7.0,53,0.00,,SCT250,0.00,VWS V14.01,2013-06-23 21:55:00,
2013-06-23 18:00:00,87.5,68.3,29.96,SW,236,7.0,13.0,53,0.00,,SCT250,0.00,VWS V14.01,2013-06-23 22:00:00,
2013-06-23 18:05:00,87.3,68.1,29.96,SW,230,11.0,11.0,53,0.00,,SCT250,0.00,VWS V14.01,2013-06-23 22:05:00,
2013-06-23 18:10:00,87.1,68.4,29.95,SSW,213,3.0,5.0,54,0.00,,SCT250,0.00,VWS V14.01,2013-06-23 22:10:00,
2013-06-23 18:15:00,87.0,68.9,29.95,SSW,200,0.0,8.0,55,0.00,,SCT250,0.00,VWS V14.01,2013-06-23 22:15:00,
2013-06-23 18:20:00,86.8,68.2,29.95,South,178,0.0,11.0,54,0.00,,SCT250,0.00,VWS V14.01,2013-06-23 22:20:00,
2013-06-23 18:25:00,86.8,68.7,29.95,South,183,7.0,9.0,55,0.00,,SCT250,0.00,VWS V14.01,2013-06-23 22:25:00,
2013-06-23 18:30:00,86.6,68.5,29.95,SSW,205,0.0,9.0,55,0.00,,SCT250,0.00,VWS V14.01,2013-06-23 22:30:00,
2013-06-23 18:35:00,86.5,69.0,29.95,SSW,212,4.0,6.0,56,0.00,,SCT250,0.00,VWS V14.01,2013-06-23 22:35:00,
2013-06-23 18:40:00,86.4,68.9,29.95,South,182,4.0,7.0,56,0.00,,SCT250,0.00,VWS V14.01,2013-06-23 22:40:00,
2013-06-23 18:45:00,86.3,69.3,29.95,South,177,0.0,0.0,57,0.00,,SCT250,0.00,VWS V14.01,2013-06-23 22:45:00,
2013-06-23 18:50:00,86.3,68.8,29.95,SW,220,3.0,12.0,56,0.00,,SCT250,0.00,VWS V14.01,2013-06-23 22:50:00,
2013-06-23 18:55:00,86.2,68.2,29.95,SSW,203,5.0,8.0,55,0.00,,SCT250,0.00,VWS V14.01,2013-06-23 22:55:00,
2013-06-23 19:00:00,86.2,69.2,29.94,SW,229,9.0,9.0,57,0.00,,SCT250,0.00,VWS V14.01,2013-06-23 23:00:00,
2013-06-23 19:05:00,86.2,68.7,29.94,SW,222,2.0,7.0,56,0.00,,SCT250,0.00,VWS V14.01,2013-06-23 23:05:00,
2013-06-23 19:10:00,86.2,68.7,29.94,South,191,0.0,1.0,56,0.00,,SCT250,0.00,VWS V14.01,2013-06-23 23:10:00,
2013-06-23 19:15:00,86.2,69.2,29.94,South,190,0.0,11.0,57,0.00,,SCT250,0.00,VWS V14.01,2013-06-23 23:15:00,
2013-06-23 19:20:00,86.1,68.6,29.94,SSW,205,4.0,8.0,56,0.00,,SCT250,0.00,VWS V14.01,2013-06-23 23:20:00,
2013-06-23 19:25:00,86.1,68.6,29.94,SSW,198,1.0,9.0,56,0.00,,SCT250,0.00,VWS V14.01,2013-06-23 23:25:00,
2013-06-23 19:30:00,86.0,69.0,29.93,South,187,4.0,9.0,57,0.00,,SCT250,0.00,VWS V14.01,2013-06-23 23:30:00,
2013-06-23 19:35:00,85.9,69.4,29.93,South,174,4.0,8.0,58,0.00,,SCT250,0.00,VWS V14.01,2013-06-23 23:35:00,
2013-06-23 19:41:00,85.8,69.3,29.93,South,169,0.0,4.0,58,0.00,,SCT250,0.00,VWS V14.01,2013-06-23 23:41:00,
2013-06-23 19:45:00,85.6,69.1,29.93,SSE,147,2.0,6.0,58,0.00,,SCT033,0.00,VWS V15.00,2013-06-23 23:45:00,
2013-06-23 19:46:00,85.6,69.1,29.93,SSE,147,0.0,5.0,58,0.00,,SCT250,0.00,VWS V14.01,2013-06-23 23:46:00,
2013-06-23 19:51:00,85.4,69.4,29.93,South,182,7.0,8.0,59,0.00,,SCT250,0.00,VWS V14.01,2013-06-23 23:51:00,
2013-06-23 19:56:00,85.2,69.8,29.93,SSW,202,0.0,9.0,60,0.00,,SCT250,0.00,VWS V14.01,2013-06-23 23:56:00,
2013-06-23 20:00:00,85.1,69.7,29.94,SSW,192,2.0,11.0,60,0.00,,SCT033,0.00,VWS V15.00,2013-06-24 00:00:00,
2013-06-23 20:01:00,85.0,69.1,29.94,South,186,9.0,9.0,59,0.00,,SCT250,0.00,VWS V14.01,2013-06-24 00:01:00,
2013-06-23 20:06:00,85.0,69.6,29.94,SW,220,2.0,6.0,60,0.00,,SCT250,0.00,VWS V14.01,2013-06-24 00:06:00,
2013-06-23 20:11:00,84.9,70.0,29.94,SSW,195,0.0,5.0,61,0.00,,SCT250,0.00,VWS V14.01,2013-06-24 00:11:00,
2013-06-23 20:15:00,84.8,69.9,29.94,SW,217,0.0,0.0,61,0.00,,SCT033,0.00,VWS V15.00,2013-06-24 00:15:00,
2013-06-23 20:16:00,84.7,69.8,29.94,SW,217,0.0,0.0,61,0.00,,SCT250,0.00,VWS V14.01,2013-06-24 00:16:00,
2013-06-23 20:21:00,84.6,70.2,29.94,South,186,0.0,0.0,62,0.00,,SCT250,0.00,VWS V14.01,2013-06-24 00:21:00,
2013-06-23 20:26:00,84.4,70.0,29.95,SSW,209,0.0,0.0,62,0.00,,SCT250,0.00,VWS V14.01,2013-06-24 00:26:00,
2013-06-23 20:30:00,84.3,70.3,29.95,WSW,242,3.0,6.0,63,0.00,,SCT033,0.00,VWS V15.00,2013-06-24 00:30:00,
2013-06-23 20:31:00,84.2,70.2,29.95,SW,234,0.0,0.0,63,0.00,,SCT250,0.00,VWS V14.01,2013-06-24 00:31:00,
2013-06-23 20:36:00,84.0,70.1,29.95,SSW,211,0.0,0.0,63,0.00,,SCT250,0.00,VWS V14.01,2013-06-24 00:36:00,
2013-06-23 20:41:00,83.8,70.3,29.94,SSW,211,0.0,0.0,64,0.00,,SCT250,0.00,VWS V14.01,2013-06-24 00:41:00,
2013-06-23 20:45:00,83.7,70.2,29.94,SSW,211,0.0,0.0,64,0.00,,SCT033,0.00,VWS V15.00,2013-06-24 00:45:00,
2013-06-23 20:46:00,83.6,70.1,29.94,SSW,211,0.0,0.0,64,0.00,,SCT250,0.00,VWS V14.01,2013-06-24 00:46:00,
2013-06-23 20:51:00,83.4,70.4,29.94,SSW,201,0.0,0.0,65,0.00,,SCT250,0.00,VWS V14.01,2013-06-24 00:51:00,
2013-06-23 20:56:00,83.2,70.2,29.94,SW,223,0.0,0.0,65,0.00,,SCT250,0.00,VWS V14.01,2013-06-24 00:56:00,
2013-06-23 21:00:00,83.1,70.1,29.94,SSW,196,0.0,0.0,65,0.00,,SCT033,0.00,VWS V15.00,2013-06-24 01:00:00,
2013-06-23 21:01:00,83.0,70.0,29.94,SSW,196,0.0,0.0,65,0.00,,SCT250,0.00,VWS V14.01,2013-06-24 01:01:00,
2013-06-23 21:06:00,82.8,70.3,29.94,SSW,195,0.0,0.0,66,0.00,,SCT250,0.00,VWS V14.01,2013-06-24 01:06:00,
2013-06-23 21:11:00,82.6,70.1,29.94,South,184,0.0,0.0,66,0.00,,SCT250,0.00,VWS V14.01,2013-06-24 01:11:00,
2013-06-23 21:15:00,82.4,69.9,29.93,South,180,0.0,5.0,66,0.00,,SCT033,0.00,VWS V15.00,2013-06-24 01:15:00,
2013-06-23 21:17:00,82.3,69.8,29.93,South,180,0.0,0.0,66,0.00,,SCT250,0.00,VWS V14.01,2013-06-24 01:17:00,
2013-06-23 21:22:00,82.1,70.1,29.94,South,180,0.0,0.0,67,0.00,,SCT250,0.00,VWS V14.01,2013-06-24 01:22:00,
2013-06-23 21:27:00,81.8,69.8,29.94,South,180,0.0,0.0,67,0.00,,SCT250,0.00,VWS V14.01,2013-06-24 01:27:00,
2013-06-23 21:30:00,81.7,69.7,29.94,South,180,0.0,0.0,67,0.00,,SCT033,0.00,VWS V15.00,2013-06-24 01:30:00,
2013-06-23 21:32:00,81.6,69.6,29.94,South,180,0.0,0.0,67,0.00,,SCT250,0.00,VWS V14.01,2013-06-24 01:32:00,
2013-06-23 21:37:00,81.4,69.8,29.94,South,180,0.0,0.0,68,0.00,,SCT250,0.00,VWS V14.01,2013-06-24 01:37:00,
2013-06-23 21:42:00,81.3,69.7,29.93,South,180,0.0,0.0,68,0.00,,SCT250,0.00,VWS V14.01,2013-06-24 01:42:00,
2013-06-23 21:45:00,81.1,69.6,29.94,South,180,0.0,0.0,68,0.00,,SCT033,0.00,VWS V15.00,2013-06-24 01:45:00,
2013-06-23 21:47:00,81.0,69.9,29.94,South,180,0.0,0.0,69,0.00,,SCT250,0.00,VWS V14.01,2013-06-24 01:47:00,
2013-06-23 21:52:00,80.8,69.7,29.94,SSW,193,0.0,0.0,69,0.00,,SCT250,0.00,VWS V14.01,2013-06-24 01:52:00,
2013-06-23 21:57:00,80.5,69.8,29.95,SW,235,4.0,9.0,70,0.00,,SCT250,0.00,VWS V14.01,2013-06-24 01:57:00,
2013-06-23 22:00:00,80.4,69.7,29.95,SSW,209,0.0,1.0,70,0.00,,SCT033,0.00,VWS V15.00,2013-06-24 02:00:00,
2013-06-23 22:02:00,80.3,69.6,29.96,SSW,211,0.0,0.0,70,0.00,,SCT250,0.00,VWS V14.01,2013-06-24 02:02:00,
2013-06-23 22:07:00,80.2,69.5,29.96,SW,218,0.0,0.0,70,0.00,,SCT250,0.00,VWS V14.01,2013-06-24 02:07:00,
2013-06-23 22:12:00,80.1,69.4,29.97,SW,228,0.0,0.0,70,0.00,,SCT250,0.00,VWS V14.01,2013-06-24 02:12:00,
2013-06-23 22:15:00,80.1,69.4,29.97,SW,220,0.0,0.0,70,0.00,,SCT033,0.00,VWS V15.00,2013-06-24 02:15:00,
2013-06-23 22:17:00,80.1,69.4,29.97,SW,220,0.0,0.0,70,0.00,,SCT250,0.00,VWS V14.01,2013-06-24 02:17:00,
2013-06-23 22:22:00,80.1,69.4,29.97,SW,224,0.0,6.0,70,0.00,,SCT250,0.00,VWS V14.01,2013-06-24 02:22:00,
2013-06-23 22:27:00,80.0,68.9,29.97,SSW,193,0.0,0.0,69,0.00,,SCT250,0.00,VWS V14.01,2013-06-24 02:27:00,
2013-06-23 22:30:00,79.9,68.8,29.97,South,191,0.0,0.0,69,0.00,,SCT033,0.00,VWS V15.00,2013-06-24 02:30:00,
2013-06-23 22:32:00,79.8,68.3,29.97,SW,218,5.0,5.0,68,0.00,,SCT250,0.00,VWS V14.01,2013-06-24 02:32:00,
2013-06-23 22:37:00,79.6,68.1,29.97,WSW,244,0.0,0.0,68,0.00,,SCT250,0.00,VWS V14.01,2013-06-24 02:37:00,
2013-06-23 22:42:00,79.5,68.0,29.98,SW,225,0.0,0.0,68,0.00,,SCT250,0.00,VWS V14.01,2013-06-24 02:42:00,
2013-06-23 22:45:00,79.4,67.9,29.98,SW,225,0.0,0.0,68,0.00,,SCT033,0.00,VWS V15.00,2013-06-24 02:45:00,
2013-06-23 22:47:00,79.4,67.9,29.98,SW,225,0.0,0.0,68,0.00,,SCT250,0.00,VWS V14.01,2013-06-24 02:47:00,
2013-06-23 22:52:00,79.3,67.8,29.98,SW,225,0.0,0.0,68,0.00,,SCT250,0.00,VWS V14.01,2013-06-24 02:52:00,
2013-06-23 22:57:00,79.2,67.7,29.99,SW,221,0.0,1.0,68,0.00,,SCT250,0.00,VWS V14.01,2013-06-24 02:57:00,
2013-06-23 23:00:00,79.1,67.6,29.99,SW,214,0.0,0.0,68,0.00,,SCT033,0.00,VWS V15.00,2013-06-24 03:00:00,
2013-06-23 23:02:00,79.0,67.6,29.99,SW,221,0.0,0.0,68,0.00,,SCT250,0.00,VWS V14.01,2013-06-24 03:02:00,
2013-06-23 23:08:00,78.9,67.9,29.99,SW,221,0.0,0.0,69,0.00,,SCT250,0.00,VWS V14.01,2013-06-24 03:08:00,
2013-06-23 23:13:00,78.8,67.8,29.99,SW,221,0.0,0.0,69,0.00,,SCT250,0.00,VWS V14.01,2013-06-24 03:13:00,
2013-06-23 23:15:00,78.8,67.8,29.99,SW,221,0.0,0.0,69,0.00,,SCT033,0.00,VWS V15.00,2013-06-24 03:15:00,
2013-06-23 23:18:00,78.7,67.7,29.99,SW,221,0.0,0.0,69,0.00,,SCT250,0.00,VWS V14.01,2013-06-24 03:18:00,
2013-06-23 23:23:00,78.6,68.0,29.99,SW,215,0.0,2.0,70,0.00,,SCT250,0.00,VWS V14.01,2013-06-24 03:23:00,
2013-06-23 23:28:00,78.5,67.9,29.99,SW,215,0.0,0.0,70,0.00,,SCT250,0.00,VWS V14.01,2013-06-24 03:28:00,
2013-06-23 23:30:00,78.5,68.3,29.99,SW,214,0.0,0.0,71,0.00,,SCT033,0.00,VWS V15.00,2013-06-24 03:30:00,
2013-06-23 23:33:00,78.4,68.2,29.99,SSW,213,0.0,0.0,71,0.00,,SCT250,0.00,VWS V14.01,2013-06-24 03:33:00,
2013-06-23 23:38:00,78.3,68.1,29.99,SW,225,4.0,6.0,71,0.00,,SCT250,0.00,VWS V14.01,2013-06-24 03:38:00,
2013-06-23 23:43:00,78.2,68.4,30.00,SW,214,0.0,2.0,72,0.00,,SCT250,0.00,VWS V14.01,2013-06-24 03:43:00,
2013-06-23 23:45:00,78.2,68.4,30.00,SW,214,0.0,4.0,72,0.00,,SCT033,0.00,VWS V15.00,2013-06-24 03:45:00,
2013-06-23 23:48:00,78.1,68.8,30.00,SW,225,0.0,0.0,73,0.00,,SCT250,0.00,VWS V14.01,2013-06-24 03:48:00,
2013-06-23 23:53:00,78.0,68.7,29.99,SW,215,0.0,6.0,73,0.00,,SCT250,0.00,VWS V14.01,2013-06-24 03:53:00,
2013-06-23 23:58:00,78.0,69.1,29.99,SSW,203,0.0,5.0,74,0.00,,SCT250,0.00,VWS V14.01,2013-06-24 03:58:00,